Map

Track Data

SID SEASON NUMBER BASIN SUBBASIN NAME ISO_TIME NATURE LAT LON WMO_WIND WMO_PRES WMO_AGENCY TRACK_TYPE DIST2LAND LANDFALL IFLAG USA_AGENCY USA_ATCF_ID USA_LAT USA_LON USA_RECORD USA_STATUS USA_WIND USA_PRES USA_SSHS USA_R34_NE USA_R34_SE USA_R34_SW USA_R34_NW USA_R50_NE USA_R50_SE USA_R50_SW USA_R50_NW USA_R64_NE USA_R64_SE USA_R64_SW USA_R64_NW USA_POCI USA_ROCI USA_RMW USA_EYE TOKYO_LAT TOKYO_LON TOKYO_GRADE TOKYO_WIND TOKYO_PRES TOKYO_R50_DIR TOKYO_R50_LONG TOKYO_R50_SHORT TOKYO_R30_DIR TOKYO_R30_LONG TOKYO_R30_SHORT TOKYO_LAND CMA_LAT CMA_LON CMA_CAT CMA_WIND CMA_PRES HKO_LAT HKO_LON HKO_CAT HKO_WIND HKO_PRES NEWDELHI_LAT NEWDELHI_LON NEWDELHI_GRADE NEWDELHI_WIND NEWDELHI_PRES NEWDELHI_CI NEWDELHI_DP NEWDELHI_POCI REUNION_LAT REUNION_LON REUNION_TYPE REUNION_WIND REUNION_PRES REUNION_TNUM REUNION_CI REUNION_RMW REUNION_R34_NE REUNION_R34_SE REUNION_R34_SW REUNION_R34_NW REUNION_R50_NE REUNION_R50_SE REUNION_R50_SW REUNION_R50_NW REUNION_R64_NE REUNION_R64_SE REUNION_R64_SW REUNION_R64_NW BOM_LAT BOM_LON BOM_TYPE BOM_WIND BOM_PRES BOM_TNUM BOM_CI BOM_RMW BOM_R34_NE BOM_R34_SE BOM_R34_SW BOM_R34_NW BOM_R50_NE BOM_R50_SE BOM_R50_SW BOM_R50_NW BOM_R64_NE BOM_R64_SE BOM_R64_SW BOM_R64_NW BOM_ROCI BOM_POCI BOM_EYE BOM_POS_METHOD BOM_PRES_METHOD NADI_LAT NADI_LON NADI_CAT NADI_WIND NADI_PRES WELLINGTON_LAT WELLINGTON_LON WELLINGTON_WIND WELLINGTON_PRES DS824_LAT DS824_LON DS824_STAGE DS824_WIND DS824_PRES TD9636_LAT TD9636_LON TD9636_STAGE TD9636_WIND TD9636_PRES TD9635_LAT TD9635_LON TD9635_WIND TD9635_PRES TD9635_ROCI NEUMANN_LAT NEUMANN_LON NEUMANN_CLASS NEUMANN_WIND NEUMANN_PRES MLC_LAT MLC_LON MLC_CLASS MLC_WIND MLC_PRES USA_GUST BOM_GUST BOM_GUST_PER REUNION_GUST REUNION_GUST_PER USA_SEAHGT USA_SEARAD_NE USA_SEARAD_SE USA_SEARAD_SW USA_SEARAD_NW STORM_SPEED STORM_DIR
1863325S12086 1864 28 SI MM NOT_NAMED 1863-11-21 06:00:00 NR -12.4000 86.4000 main 1826 1826 _____O________ -1 -12.4000 86.4000 99 9.90000 4 259
1863325S12086 1864 28 SI MM NOT_NAMED 1863-11-21 09:00:00 NR -12.4384 86.1909 main 1843 1843 _____P________ -1 -12.4384 86.1909 99 4 259
1863325S12086 1864 28 SI MM NOT_NAMED 1863-11-21 12:00:00 NR -12.4778 85.9779 main 1867 1867 _____P________ -1 -12.4778 85.9779 99 4 259
1863325S12086 1864 28 SI MM NOT_NAMED 1863-11-21 15:00:00 NR -12.5195 85.7571 main 1884 1884 _____P________ -1 -12.5195 85.7571 99 5 259
1863325S12086 1864 28 SI MM NOT_NAMED 1863-11-21 18:00:00 NR -12.5644 85.5246 main 1916 1916 _____P________ -1 -12.5644 85.5246 99 5 259
1863325S12086 1864 28 SI MM NOT_NAMED 1863-11-21 21:00:00 NR -12.6138 85.2766 main 1933 1933 _____P________ -1 -12.6138 85.2766 99 5 258
1863325S12086 1864 28 SI MM NOT_NAMED 1863-11-22 00:00:00 NR -12.6688 85.0091 main 1966 1966 _____P________ -1 -12.6688 85.0091 99 6 258
1863325S12086 1864 28 SI MM NOT_NAMED 1863-11-22 03:00:00 NR -12.7305 84.7182 main 1992 1992 _____P________ -1 -12.7305 84.7182 99 6 258
1863325S12086 1864 28 SI MM NOT_NAMED 1863-11-22 06:00:00 NR -12.8000 84.4000 main 2025 2025 _____O________ -1 -12.8000 84.4000 99 9.90000 7 257
1863325S12086 1864 28 SI MM NOT_NAMED 1863-11-22 09:00:00 NR -12.8780 84.0523 main 2057 2057 _____P________ -1 -12.8780 84.0523 99 7 257
1863325S12086 1864 28 SI MM NOT_NAMED 1863-11-22 12:00:00 NR -12.9639 83.6799 main 2099 2099 _____P________ -1 -12.9639 83.6799 99 8 256
1863325S12086 1864 28 SI MM NOT_NAMED 1863-11-22 15:00:00 NR -13.0569 83.2895 main 2141 2141 _____P________ -1 -13.0569 83.2895 99 8 256
1863325S12086 1864 28 SI MM NOT_NAMED 1863-11-22 18:00:00 NR -13.1562 82.8877 main 2154 2150 _____P________ -1 -13.1562 82.8877 99 8 255
1863325S12086 1864 28 SI MM NOT_NAMED 1863-11-22 21:00:00 NR -13.2608 82.4811 main 2161 2158 _____P________ -1 -13.2608 82.4811 99 8 255
1863325S12086 1864 28 SI MM NOT_NAMED 1863-11-23 00:00:00 NR -13.3701 82.0766 main 2168 2166 _____P________ -1 -13.3701 82.0766 99 8 254
1863325S12086 1864 28 SI MM NOT_NAMED 1863-11-23 03:00:00 NR -13.4834 81.6806 main 2176 2175 _____P________ -1 -13.4834 81.6806 99 8 253
1863325S12086 1864 28 SI MM NOT_NAMED 1863-11-23 06:00:00 NR -13.6000 81.3000 main 2186 2185 _____O________ -1 -13.6000 81.3000 99 9.90000 8 252
1863325S12086 1864 28 SI MM NOT_NAMED 1863-11-23 09:00:00 NR -13.7172 80.9462 main 2196 2196 _____P________ -1 -13.7172 80.9462 99 7 251
1863325S12086 1864 28 SI MM NOT_NAMED 1863-11-23 12:00:00 NR -13.8391 80.6035 main 2207 2207 _____P________ -1 -13.8391 80.6035 99 7 249
1863325S12086 1864 28 SI MM NOT_NAMED 1863-11-23 15:00:00 NR -13.9643 80.2722 main 2229 2229 _____P________ -1 -13.9643 80.2722 99 7 248
1863325S12086 1864 28 SI MM NOT_NAMED 1863-11-23 18:00:00 NR -14.0918 79.9526 main 2241 2241 _____P________ -1 -14.0918 79.9526 99 7 247
1863325S12086 1864 28 SI MM NOT_NAMED 1863-11-23 21:00:00 NR -14.2203 79.6452 main 2254 2254 _____P________ -1 -14.2203 79.6452 99 6 246
1863325S12086 1864 28 SI MM NOT_NAMED 1863-11-24 00:00:00 NR -14.3487 79.3504 main 2266 2266 _____P________ -1 -14.3487 79.3504 99 6 245
1863325S12086 1864 28 SI MM NOT_NAMED 1863-11-24 03:00:00 NR -14.4756 79.0685 main 2291 2291 _____P________ -1 -14.4756 79.0685 99 6 245
1863325S12086 1864 28 SI MM NOT_NAMED 1863-11-24 06:00:00 NR -14.6000 78.8000 reunion main 2305 2291 _____O________ -1 -14.6000 78.8000 99 9.90000 6 244
1863325S12086 1864 28 SI MM NOT_NAMED 1863-11-24 09:00:00 NR -14.7209 78.5450 main 2281 2257 _____P________ -1 -14.7209 78.5450 99 5 244
1863325S12086 1864 28 SI MM NOT_NAMED 1863-11-24 12:00:00 NR -14.8384 78.3020 main 2257 2233 _____P________ -1 -14.8384 78.3020 99 5 243
1863325S12086 1864 28 SI MM NOT_NAMED 1863-11-24 15:00:00 NR -14.9532 78.0694 main 2229 2205 _____P________ -1 -14.9532 78.0694 99 5 243
1863325S12086 1864 28 SI MM NOT_NAMED 1863-11-24 18:00:00 NR -15.0655 77.8453 main 2195 2171 _____P________ -1 -15.0655 77.8453 99 5 242
1863325S12086 1864 28 SI MM NOT_NAMED 1863-11-24 21:00:00 NR -15.1759 77.6281 main 2171 2147 _____P________ -1 -15.1759 77.6281 99 5 242
1863325S12086 1864 28 SI MM NOT_NAMED 1863-11-25 00:00:00 NR -15.2848 77.4160 main 2147 2123 _____P________ -1 -15.2848 77.4160 99 5 242
1863325S12086 1864 28 SI MM NOT_NAMED 1863-11-25 03:00:00 NR -15.3927 77.2072 main 2123 2100 _____P________ -1 -15.3927 77.2072 99 5 242
1863325S12086 1864 28 SI MM NOT_NAMED 1863-11-25 06:00:00 NR -15.5000 77.0000 reunion main 2100 _____O________ -1 -15.5000 77.0000 99 9.90000 5 241

About IBTrACS Database

This database is a web-friendly format of International Best Track Archive for Climate Stewardship (IBTrACS), a global best track data archive curated by NOAA dating back to 1842.

Updated: 2021-12-03